sensor_id;sensor_type;location;lat;lon;timestamp;P1;durP1;ratioP1;P2;durP2;ratioP2
10617;SDS011;5356;43.526;26.534;2023-04-29T00:00:31;8.60;;;4.93;;
10617;SDS011;5356;43.526;26.534;2023-04-29T00:02:57;6.47;;;4.85;;
10617;SDS011;5356;43.526;26.534;2023-04-29T00:05:22;8.27;;;4.60;;
10617;SDS011;5356;43.526;26.534;2023-04-29T00:07:48;6.53;;;4.25;;
10617;SDS011;5356;43.526;26.534;2023-04-29T00:10:13;11.57;;;4.53;;
10617;SDS011;5356;43.526;26.534;2023-04-29T00:12:40;6.75;;;4.57;;
10617;SDS011;5356;43.526;26.534;2023-04-29T00:15:06;6.63;;;4.63;;
10617;SDS011;5356;43.526;26.534;2023-04-29T00:17:33;9.10;;;4.90;;
10617;SDS011;5356;43.526;26.534;2023-04-29T00:19:58;7.05;;;5.05;;
10617;SDS011;5356;43.526;26.534;2023-04-29T00:22:24;7.63;;;4.70;;
10617;SDS011;5356;43.526;26.534;2023-04-29T00:24:49;9.90;;;5.25;;
10617;SDS011;5356;43.526;26.534;2023-04-29T00:27:15;7.55;;;4.55;;
10617;SDS011;5356;43.526;26.534;2023-04-29T00:29:41;6.70;;;4.40;;
10617;SDS011;5356;43.526;26.534;2023-04-29T00:32:07;5.50;;;4.20;;
10617;SDS011;5356;43.526;26.534;2023-04-29T00:34:33;8.00;;;4.10;;
10617;SDS011;5356;43.526;26.534;2023-04-29T00:36:58;6.13;;;4.40;;
10617;SDS011;5356;43.526;26.534;2023-04-29T00:39:24;8.52;;;4.60;;
10617;SDS011;5356;43.526;26.534;2023-04-29T00:41:49;6.25;;;4.28;;
10617;SDS011;5356;43.526;26.534;2023-04-29T00:44:15;8.93;;;4.68;;
10617;SDS011;5356;43.526;26.534;2023-04-29T00:46:41;6.53;;;4.50;;
10617;SDS011;5356;43.526;26.534;2023-04-29T00:49:07;8.40;;;4.63;;
10617;SDS011;5356;43.526;26.534;2023-04-29T00:51:33;6.30;;;4.00;;
10617;SDS011;5356;43.526;26.534;2023-04-29T00:54:01;6.45;;;4.75;;
10617;SDS011;5356;43.526;26.534;2023-04-29T00:56:28;8.43;;;4.57;;
10617;SDS011;5356;43.526;26.534;2023-04-29T00:58:57;8.15;;;5.10;;
10617;SDS011;5356;43.526;26.534;2023-04-29T01:01:23;8.15;;;4.22;;
10617;SDS011;5356;43.526;26.534;2023-04-29T01:03:49;8.98;;;4.63;;
10617;SDS011;5356;43.526;26.534;2023-04-29T01:09:14;7.50;;;4.97;;
10617;SDS011;5356;43.526;26.534;2023-04-29T01:12:07;8.40;;;4.65;;
10617;SDS011;5356;43.526;26.534;2023-04-29T01:14:45;11.82;;;4.82;;
10617;SDS011;5356;43.526;26.534;2023-04-29T01:17:28;6.38;;;4.32;;
10617;SDS011;5356;43.526;26.534;2023-04-29T01:22:27;6.65;;;4.25;;
10617;SDS011;5356;43.526;26.534;2023-04-29T01:24:53;7.78;;;4.45;;
10617;SDS011;5356;43.526;26.534;2023-04-29T01:43:39;8.57;;;4.47;;
10617;SDS011;5356;43.526;26.534;2023-04-29T01:46:08;6.55;;;4.13;;
10617;SDS011;5356;43.526;26.534;2023-04-29T01:48:35;7.47;;;4.18;;
10617;SDS011;5356;43.526;26.534;2023-04-29T01:51:01;6.15;;;4.20;;
10617;SDS011;5356;43.526;26.534;2023-04-29T01:53:28;6.28;;;3.95;;
10617;SDS011;5356;43.526;26.534;2023-04-29T01:55:53;6.30;;;3.83;;
10617;SDS011;5356;43.526;26.534;2023-04-29T01:58:18;7.70;;;3.63;;
10617;SDS011;5356;43.526;26.534;2023-04-29T02:00:44;5.90;;;3.50;;
10617;SDS011;5356;43.526;26.534;2023-04-29T02:03:09;8.65;;;4.43;;
10617;SDS011;5356;43.526;26.534;2023-04-29T02:05:35;8.00;;;4.35;;
10617;SDS011;5356;43.526;26.534;2023-04-29T02:08:01;7.40;;;4.45;;
10617;SDS011;5356;43.526;26.534;2023-04-29T02:10:27;8.55;;;5.20;;
10617;SDS011;5356;43.526;26.534;2023-04-29T02:12:53;6.60;;;4.55;;
10617;SDS011;5356;43.526;26.534;2023-04-29T02:15:19;10.20;;;5.22;;
10617;SDS011;5356;43.526;26.534;2023-04-29T02:17:45;11.27;;;5.93;;
10617;SDS011;5356;43.526;26.534;2023-04-29T02:20:11;9.32;;;4.55;;
10617;SDS011;5356;43.526;26.534;2023-04-29T02:22:36;6.80;;;4.50;;
10617;SDS011;5356;43.526;26.534;2023-04-29T02:25:03;6.47;;;3.75;;
10617;SDS011;5356;43.526;26.534;2023-04-29T02:27:29;5.18;;;3.75;;
10617;SDS011;5356;43.526;26.534;2023-04-29T02:29:54;5.57;;;3.97;;
10617;SDS011;5356;43.526;26.534;2023-04-29T02:32:19;7.30;;;4.57;;
10617;SDS011;5356;43.526;26.534;2023-04-29T02:34:45;8.55;;;4.90;;
10617;SDS011;5356;43.526;26.534;2023-04-29T02:37:11;12.57;;;7.03;;
10617;SDS011;5356;43.526;26.534;2023-04-29T02:39:36;13.13;;;5.30;;
10617;SDS011;5356;43.526;26.534;2023-04-29T02:42:02;12.90;;;5.38;;
10617;SDS011;5356;43.526;26.534;2023-04-29T02:44:28;13.15;;;4.72;;
10617;SDS011;5356;43.526;26.534;2023-04-29T02:46:54;13.45;;;5.07;;
10617;SDS011;5356;43.526;26.534;2023-04-29T02:49:20;11.68;;;5.60;;
10617;SDS011;5356;43.526;26.534;2023-04-29T02:51:45;9.32;;;4.68;;
10617;SDS011;5356;43.526;26.534;2023-04-29T02:54:13;7.07;;;4.18;;
10617;SDS011;5356;43.526;26.534;2023-04-29T02:56:39;10.30;;;3.95;;
10617;SDS011;5356;43.526;26.534;2023-04-29T02:59:05;5.50;;;4.10;;
10617;SDS011;5356;43.526;26.534;2023-04-29T03:01:30;5.63;;;4.15;;
10617;SDS011;5356;43.526;26.534;2023-04-29T03:03:56;8.35;;;4.20;;
10617;SDS011;5356;43.526;26.534;2023-04-29T03:06:22;8.27;;;4.25;;
10617;SDS011;5356;43.526;26.534;2023-04-29T03:08:47;7.03;;;4.30;;
10617;SDS011;5356;43.526;26.534;2023-04-29T03:11:13;8.27;;;3.88;;
10617;SDS011;5356;43.526;26.534;2023-04-29T03:13:38;11.02;;;4.85;;
10617;SDS011;5356;43.526;26.534;2023-04-29T03:16:04;5.47;;;3.97;;
10617;SDS011;5356;43.526;26.534;2023-04-29T03:18:30;6.43;;;4.30;;
10617;SDS011;5356;43.526;26.534;2023-04-29T03:20:56;6.88;;;4.50;;
10617;SDS011;5356;43.526;26.534;2023-04-29T03:23:22;5.85;;;4.25;;
10617;SDS011;5356;43.526;26.534;2023-04-29T03:25:48;8.88;;;4.55;;
10617;SDS011;5356;43.526;26.534;2023-04-29T03:28:13;8.65;;;4.30;;
10617;SDS011;5356;43.526;26.534;2023-04-29T03:30:39;11.38;;;5.10;;
10617;SDS011;5356;43.526;26.534;2023-04-29T03:33:05;10.98;;;4.72;;
10617;SDS011;5356;43.526;26.534;2023-04-29T03:35:30;8.32;;;4.70;;
10617;SDS011;5356;43.526;26.534;2023-04-29T03:37:56;8.20;;;4.25;;
10617;SDS011;5356;43.526;26.534;2023-04-29T03:40:21;9.93;;;4.30;;
10617;SDS011;5356;43.526;26.534;2023-04-29T03:42:47;12.80;;;4.78;;
10617;SDS011;5356;43.526;26.534;2023-04-29T03:45:12;6.30;;;4.63;;
10617;SDS011;5356;43.526;26.534;2023-04-29T03:47:38;8.88;;;4.60;;
10617;SDS011;5356;43.526;26.534;2023-04-29T03:50:04;11.05;;;4.65;;
10617;SDS011;5356;43.526;26.534;2023-04-29T03:52:33;5.68;;;3.40;;
10617;SDS011;5356;43.526;26.534;2023-04-29T03:55:01;7.47;;;4.60;;
10617;SDS011;5356;43.526;26.534;2023-04-29T03:57:26;10.15;;;4.65;;
10617;SDS011;5356;43.526;26.534;2023-04-29T03:59:52;6.25;;;4.53;;
10617;SDS011;5356;43.526;26.534;2023-04-29T04:02:17;12.70;;;5.18;;
10617;SDS011;5356;43.526;26.534;2023-04-29T04:04:43;10.35;;;5.25;;
10617;SDS011;5356;43.526;26.534;2023-04-29T04:07:09;12.30;;;5.38;;
10617;SDS011;5356;43.526;26.534;2023-04-29T04:09:35;12.35;;;6.97;;
10617;SDS011;5356;43.526;26.534;2023-04-29T04:12:01;11.00;;;6.15;;
10617;SDS011;5356;43.526;26.534;2023-04-29T04:14:28;9.50;;;5.95;;
10617;SDS011;5356;43.526;26.534;2023-04-29T04:16:54;12.50;;;6.70;;
10617;SDS011;5356;43.526;26.534;2023-04-29T04:19:20;51.50;;;22.30;;
10617;SDS011;5356;43.526;26.534;2023-04-29T04:21:45;25.45;;;12.75;;
10617;SDS011;5356;43.526;26.534;2023-04-29T04:24:11;25.25;;;11.52;;
10617;SDS011;5356;43.526;26.534;2023-04-29T04:26:36;18.77;;;8.45;;
10617;SDS011;5356;43.526;26.534;2023-04-29T04:29:02;10.02;;;6.22;;
10617;SDS011;5356;43.526;26.534;2023-04-29T04:31:27;11.15;;;6.22;;
10617;SDS011;5356;43.526;26.534;2023-04-29T04:33:53;10.20;;;5.55;;
10617;SDS011;5356;43.526;26.534;2023-04-29T04:36:19;22.77;;;9.75;;
10617;SDS011;5356;43.526;26.534;2023-04-29T04:38:45;18.50;;;7.18;;
10617;SDS011;5356;43.526;26.534;2023-04-29T04:41:11;13.25;;;7.55;;
10617;SDS011;5356;43.526;26.534;2023-04-29T04:43:36;20.08;;;10.15;;
10617;SDS011;5356;43.526;26.534;2023-04-29T04:46:10;39.38;;;17.75;;
10617;SDS011;5356;43.526;26.534;2023-04-29T04:48:37;29.83;;;16.63;;
10617;SDS011;5356;43.526;26.534;2023-04-29T04:51:09;25.83;;;13.93;;
10617;SDS011;5356;43.526;26.534;2023-04-29T04:53:36;32.23;;;14.47;;
10617;SDS011;5356;43.526;26.534;2023-04-29T04:56:02;47.55;;;23.20;;
10617;SDS011;5356;43.526;26.534;2023-04-29T04:58:28;17.33;;;10.07;;
10617;SDS011;5356;43.526;26.534;2023-04-29T05:00:57;16.98;;;8.85;;
10617;SDS011;5356;43.526;26.534;2023-04-29T05:03:23;13.80;;;7.10;;
10617;SDS011;5356;43.526;26.534;2023-04-29T05:05:52;15.80;;;6.97;;
10617;SDS011;5356;43.526;26.534;2023-04-29T05:08:18;30.00;;;13.95;;
10617;SDS011;5356;43.526;26.534;2023-04-29T05:10:44;15.18;;;8.65;;
10617;SDS011;5356;43.526;26.534;2023-04-29T05:13:09;10.63;;;7.65;;
10617;SDS011;5356;43.526;26.534;2023-04-29T05:15:35;16.23;;;8.68;;
10617;SDS011;5356;43.526;26.534;2023-04-29T05:18:00;10.77;;;7.57;;
10617;SDS011;5356;43.526;26.534;2023-04-29T05:20:26;11.77;;;8.00;;
10617;SDS011;5356;43.526;26.534;2023-04-29T05:22:51;14.30;;;8.25;;
10617;SDS011;5356;43.526;26.534;2023-04-29T05:25:17;11.98;;;7.18;;
10617;SDS011;5356;43.526;26.534;2023-04-29T05:27:42;11.13;;;6.60;;
10617;SDS011;5356;43.526;26.534;2023-04-29T05:30:08;11.43;;;6.20;;
10617;SDS011;5356;43.526;26.534;2023-04-29T05:32:33;11.88;;;7.57;;
10617;SDS011;5356;43.526;26.534;2023-04-29T05:34:59;12.30;;;7.32;;
10617;SDS011;5356;43.526;26.534;2023-04-29T05:37:24;12.60;;;7.07;;
10617;SDS011;5356;43.526;26.534;2023-04-29T05:39:54;11.27;;;6.30;;
10617;SDS011;5356;43.526;26.534;2023-04-29T05:42:20;11.52;;;6.90;;
10617;SDS011;5356;43.526;26.534;2023-04-29T05:44:46;9.35;;;6.95;;
10617;SDS011;5356;43.526;26.534;2023-04-29T05:47:11;12.05;;;6.80;;
10617;SDS011;5356;43.526;26.534;2023-04-29T05:49:37;10.63;;;6.70;;
10617;SDS011;5356;43.526;26.534;2023-04-29T05:52:04;11.18;;;7.18;;
10617;SDS011;5356;43.526;26.534;2023-04-29T05:54:31;11.02;;;6.95;;
10617;SDS011;5356;43.526;26.534;2023-04-29T05:56:57;8.02;;;6.15;;
10617;SDS011;5356;43.526;26.534;2023-04-29T05:59:23;11.15;;;7.03;;
10617;SDS011;5356;43.526;26.534;2023-04-29T06:01:50;10.65;;;6.63;;
10617;SDS011;5356;43.526;26.534;2023-04-29T06:04:16;11.00;;;6.82;;
10617;SDS011;5356;43.526;26.534;2023-04-29T06:06:42;15.60;;;6.38;;
10617;SDS011;5356;43.526;26.534;2023-04-29T06:09:08;10.13;;;5.72;;
10617;SDS011;5356;43.526;26.534;2023-04-29T06:11:33;14.82;;;7.57;;
10617;SDS011;5356;43.526;26.534;2023-04-29T06:13:59;9.57;;;5.45;;
10617;SDS011;5356;43.526;26.534;2023-04-29T06:16:24;9.90;;;5.38;;
10617;SDS011;5356;43.526;26.534;2023-04-29T06:18:50;11.02;;;6.78;;
10617;SDS011;5356;43.526;26.534;2023-04-29T06:21:16;9.25;;;5.88;;
10617;SDS011;5356;43.526;26.534;2023-04-29T06:23:41;10.10;;;6.22;;
10617;SDS011;5356;43.526;26.534;2023-04-29T06:26:07;58.15;;;25.92;;
10617;SDS011;5356;43.526;26.534;2023-04-29T06:28:32;17.88;;;9.95;;
10617;SDS011;5356;43.526;26.534;2023-04-29T06:30:57;21.05;;;12.00;;
10617;SDS011;5356;43.526;26.534;2023-04-29T06:33:24;7.72;;;4.47;;
10617;SDS011;5356;43.526;26.534;2023-04-29T06:35:50;6.25;;;3.95;;
10617;SDS011;5356;43.526;26.534;2023-04-29T06:38:16;8.52;;;3.30;;
10617;SDS011;5356;43.526;26.534;2023-04-29T06:40:41;4.65;;;3.30;;
10617;SDS011;5356;43.526;26.534;2023-04-29T06:43:07;5.85;;;2.60;;
10617;SDS011;5356;43.526;26.534;2023-04-29T06:45:32;10.75;;;3.65;;
10617;SDS011;5356;43.526;26.534;2023-04-29T06:47:58;5.03;;;2.58;;
10617;SDS011;5356;43.526;26.534;2023-04-29T06:50:23;7.55;;;4.20;;
10617;SDS011;5356;43.526;26.534;2023-04-29T06:52:48;8.52;;;3.35;;
10617;SDS011;5356;43.526;26.534;2023-04-29T06:55:16;5.28;;;2.53;;
10617;SDS011;5356;43.526;26.534;2023-04-29T06:57:41;7.38;;;2.85;;
10617;SDS011;5356;43.526;26.534;2023-04-29T07:00:07;8.93;;;4.78;;
10617;SDS011;5356;43.526;26.534;2023-04-29T07:02:33;12.48;;;6.05;;
10617;SDS011;5356;43.526;26.534;2023-04-29T07:04:58;10.02;;;3.15;;
10617;SDS011;5356;43.526;26.534;2023-04-29T07:07:24;12.02;;;5.90;;
10617;SDS011;5356;43.526;26.534;2023-04-29T07:09:49;7.70;;;3.53;;
10617;SDS011;5356;43.526;26.534;2023-04-29T07:12:16;9.38;;;4.10;;
10617;SDS011;5356;43.526;26.534;2023-04-29T07:14:41;7.53;;;3.80;;
10617;SDS011;5356;43.526;26.534;2023-04-29T07:17:07;7.00;;;2.40;;
10617;SDS011;5356;43.526;26.534;2023-04-29T07:19:32;7.32;;;2.70;;
10617;SDS011;5356;43.526;26.534;2023-04-29T07:21:58;7.85;;;3.45;;
10617;SDS011;5356;43.526;26.534;2023-04-29T07:24:25;6.25;;;3.15;;
10617;SDS011;5356;43.526;26.534;2023-04-29T07:26:50;5.93;;;3.42;;
10617;SDS011;5356;43.526;26.534;2023-04-29T07:29:16;3.58;;;2.08;;
10617;SDS011;5356;43.526;26.534;2023-04-29T07:31:41;4.97;;;2.70;;
10617;SDS011;5356;43.526;26.534;2023-04-29T07:34:07;9.20;;;2.90;;
10617;SDS011;5356;43.526;26.534;2023-04-29T07:36:32;7.05;;;3.35;;
10617;SDS011;5356;43.526;26.534;2023-04-29T07:38:57;4.05;;;2.28;;
10617;SDS011;5356;43.526;26.534;2023-04-29T07:41:23;5.20;;;2.17;;
10617;SDS011;5356;43.526;26.534;2023-04-29T07:43:48;7.82;;;2.95;;
10617;SDS011;5356;43.526;26.534;2023-04-29T07:46:14;5.63;;;3.67;;
10617;SDS011;5356;43.526;26.534;2023-04-29T07:48:42;5.78;;;3.72;;
10617;SDS011;5356;43.526;26.534;2023-04-29T07:51:11;3.90;;;2.08;;
10617;SDS011;5356;43.526;26.534;2023-04-29T07:53:38;8.35;;;3.58;;
10617;SDS011;5356;43.526;26.534;2023-04-29T07:56:04;6.40;;;2.88;;
10617;SDS011;5356;43.526;26.534;2023-04-29T07:58:31;5.10;;;2.38;;
10617;SDS011;5356;43.526;26.534;2023-04-29T08:00:57;309.48;;;107.53;;
10617;SDS011;5356;43.526;26.534;2023-04-29T08:03:28;492.90;;;208.50;;
10617;SDS011;5356;43.526;26.534;2023-04-29T08:05:54;141.07;;;61.20;;
10617;SDS011;5356;43.526;26.534;2023-04-29T08:08:24;29.73;;;16.67;;
10617;SDS011;5356;43.526;26.534;2023-04-29T08:10:50;7.97;;;4.93;;
10617;SDS011;5356;43.526;26.534;2023-04-29T08:13:15;8.30;;;3.83;;
10617;SDS011;5356;43.526;26.534;2023-04-29T08:15:43;5.78;;;2.92;;
10617;SDS011;5356;43.526;26.534;2023-04-29T08:18:09;6.03;;;3.42;;
10617;SDS011;5356;43.526;26.534;2023-04-29T08:20:34;4.80;;;2.22;;
10617;SDS011;5356;43.526;26.534;2023-04-29T08:23:00;19.92;;;6.30;;
10617;SDS011;5356;43.526;26.534;2023-04-29T08:25:25;19.73;;;9.40;;
10617;SDS011;5356;43.526;26.534;2023-04-29T08:27:51;3.42;;;2.90;;
10617;SDS011;5356;43.526;26.534;2023-04-29T08:30:16;6.82;;;2.80;;
10617;SDS011;5356;43.526;26.534;2023-04-29T08:32:42;8.73;;;3.50;;
10617;SDS011;5356;43.526;26.534;2023-04-29T08:35:08;3.13;;;2.50;;
10617;SDS011;5356;43.526;26.534;2023-04-29T08:37:33;4.82;;;2.42;;
10617;SDS011;5356;43.526;26.534;2023-04-29T08:39:59;8.27;;;2.72;;
10617;SDS011;5356;43.526;26.534;2023-04-29T08:42:31;6.70;;;2.42;;
10617;SDS011;5356;43.526;26.534;2023-04-29T08:47:24;3.13;;;2.58;;
10617;SDS011;5356;43.526;26.534;2023-04-29T08:49:54;3.38;;;2.47;;
10617;SDS011;5356;43.526;26.534;2023-04-29T08:52:21;6.97;;;3.10;;
10617;SDS011;5356;43.526;26.534;2023-04-29T08:54:47;3.28;;;2.95;;
10617;SDS011;5356;43.526;26.534;2023-04-29T08:57:12;5.07;;;2.78;;
10617;SDS011;5356;43.526;26.534;2023-04-29T08:59:38;6.72;;;3.80;;
10617;SDS011;5356;43.526;26.534;2023-04-29T09:02:05;6.45;;;2.97;;
10617;SDS011;5356;43.526;26.534;2023-04-29T09:07:01;4.78;;;2.38;;
10617;SDS011;5356;43.526;26.534;2023-04-29T09:09:28;5.18;;;2.72;;
10617;SDS011;5356;43.526;26.534;2023-04-29T09:11:55;3.63;;;2.25;;
10617;SDS011;5356;43.526;26.534;2023-04-29T09:14:21;8.48;;;3.83;;
10617;SDS011;5356;43.526;26.534;2023-04-29T09:16:55;4.90;;;2.53;;
10617;SDS011;5356;43.526;26.534;2023-04-29T09:19:28;4.68;;;2.58;;
10617;SDS011;5356;43.526;26.534;2023-04-29T09:21:58;4.15;;;2.40;;
10617;SDS011;5356;43.526;26.534;2023-04-29T09:24:25;7.72;;;3.25;;
10617;SDS011;5356;43.526;26.534;2023-04-29T09:26:51;8.90;;;2.85;;
10617;SDS011;5356;43.526;26.534;2023-04-29T09:29:17;6.53;;;2.45;;
10617;SDS011;5356;43.526;26.534;2023-04-29T09:31:43;3.20;;;2.25;;
10617;SDS011;5356;43.526;26.534;2023-04-29T09:34:10;5.05;;;2.90;;
10617;SDS011;5356;43.526;26.534;2023-04-29T09:39:18;9.10;;;3.83;;
10617;SDS011;5356;43.526;26.534;2023-04-29T09:44:16;3.90;;;2.42;;
10617;SDS011;5356;43.526;26.534;2023-04-29T09:46:43;7.75;;;3.47;;
10617;SDS011;5356;43.526;26.534;2023-04-29T09:49:28;9.48;;;2.58;;
10617;SDS011;5356;43.526;26.534;2023-04-29T09:51:58;11.75;;;4.65;;
10617;SDS011;5356;43.526;26.534;2023-04-29T09:54:27;3.70;;;2.72;;
10617;SDS011;5356;43.526;26.534;2023-04-29T09:56:54;4.53;;;2.75;;
10617;SDS011;5356;43.526;26.534;2023-04-29T09:59:22;3.55;;;2.28;;
10617;SDS011;5356;43.526;26.534;2023-04-29T10:01:49;4.78;;;2.78;;
10617;SDS011;5356;43.526;26.534;2023-04-29T10:04:22;4.25;;;2.95;;
10617;SDS011;5356;43.526;26.534;2023-04-29T10:06:52;5.95;;;2.35;;
10617;SDS011;5356;43.526;26.534;2023-04-29T10:09:19;4.55;;;2.38;;
10617;SDS011;5356;43.526;26.534;2023-04-29T10:11:46;5.07;;;2.63;;
10617;SDS011;5356;43.526;26.534;2023-04-29T10:14:20;4.25;;;2.50;;
10617;SDS011;5356;43.526;26.534;2023-04-29T10:19:24;4.88;;;2.50;;
10617;SDS011;5356;43.526;26.534;2023-04-29T10:22:06;3.35;;;2.60;;
10617;SDS011;5356;43.526;26.534;2023-04-29T10:24:36;16.33;;;5.77;;
10617;SDS011;5356;43.526;26.534;2023-04-29T10:27:05;14.35;;;4.82;;
10617;SDS011;5356;43.526;26.534;2023-04-29T10:29:32;4.72;;;2.63;;
10617;SDS011;5356;43.526;26.534;2023-04-29T10:32:00;4.25;;;3.20;;
10617;SDS011;5356;43.526;26.534;2023-04-29T10:34:28;4.13;;;2.35;;
10617;SDS011;5356;43.526;26.534;2023-04-29T10:36:56;8.10;;;4.03;;
10617;SDS011;5356;43.526;26.534;2023-04-29T10:39:26;4.07;;;2.50;;
10617;SDS011;5356;43.526;26.534;2023-04-29T10:42:00;16.10;;;5.65;;
10617;SDS011;5356;43.526;26.534;2023-04-29T10:44:30;6.57;;;3.38;;
10617;SDS011;5356;43.526;26.534;2023-04-29T10:50:03;3.33;;;2.40;;
10617;SDS011;5356;43.526;26.534;2023-04-29T10:52:29;3.58;;;2.63;;
10617;SDS011;5356;43.526;26.534;2023-04-29T10:55:04;8.27;;;3.65;;
10617;SDS011;5356;43.526;26.534;2023-04-29T10:57:47;17.13;;;5.55;;
10617;SDS011;5356;43.526;26.534;2023-04-29T11:00:26;8.20;;;3.08;;
10617;SDS011;5356;43.526;26.534;2023-04-29T11:02:53;6.00;;;3.03;;
10617;SDS011;5356;43.526;26.534;2023-04-29T11:05:33;5.05;;;2.83;;
10617;SDS011;5356;43.526;26.534;2023-04-29T11:08:12;4.00;;;2.60;;
10617;SDS011;5356;43.526;26.534;2023-04-29T11:10:47;7.57;;;3.78;;
10617;SDS011;5356;43.526;26.534;2023-04-29T11:13:25;31.67;;;8.52;;
10617;SDS011;5356;43.526;26.534;2023-04-29T11:15:53;19.67;;;6.38;;
10617;SDS011;5356;43.526;26.534;2023-04-29T11:18:27;7.00;;;3.67;;
10617;SDS011;5356;43.526;26.534;2023-04-29T11:23:34;6.75;;;2.72;;
10617;SDS011;5356;43.526;26.534;2023-04-29T11:26:00;9.90;;;4.28;;
10617;SDS011;5356;43.526;26.534;2023-04-29T11:28:26;6.60;;;4.55;;
10617;SDS011;5356;43.526;26.534;2023-04-29T11:30:52;9.13;;;3.65;;
10617;SDS011;5356;43.526;26.534;2023-04-29T11:33:23;4.95;;;3.15;;
10617;SDS011;5356;43.526;26.534;2023-04-29T11:35:51;6.75;;;3.65;;
10617;SDS011;5356;43.526;26.534;2023-04-29T11:38:26;8.02;;;3.83;;
10617;SDS011;5356;43.526;26.534;2023-04-29T11:40:56;4.45;;;2.80;;
10617;SDS011;5356;43.526;26.534;2023-04-29T11:43:22;4.60;;;2.67;;
10617;SDS011;5356;43.526;26.534;2023-04-29T11:45:49;4.28;;;2.40;;
10617;SDS011;5356;43.526;26.534;2023-04-29T11:50:45;8.50;;;4.43;;
10617;SDS011;5356;43.526;26.534;2023-04-29T11:53:12;3.95;;;2.30;;
10617;SDS011;5356;43.526;26.534;2023-04-29T11:55:38;5.43;;;2.67;;
10617;SDS011;5356;43.526;26.534;2023-04-29T11:58:07;25.77;;;9.20;;
10617;SDS011;5356;43.526;26.534;2023-04-29T12:00:32;4.30;;;3.28;;
10617;SDS011;5356;43.526;26.534;2023-04-29T12:02:58;9.35;;;4.13;;
10617;SDS011;5356;43.526;26.534;2023-04-29T12:05:24;6.25;;;2.97;;
10617;SDS011;5356;43.526;26.534;2023-04-29T12:07:50;4.68;;;2.90;;
10617;SDS011;5356;43.526;26.534;2023-04-29T12:10:15;11.98;;;3.58;;
10617;SDS011;5356;43.526;26.534;2023-04-29T12:12:41;6.05;;;3.00;;
10617;SDS011;5356;43.526;26.534;2023-04-29T12:15:10;16.52;;;6.00;;
10617;SDS011;5356;43.526;26.534;2023-04-29T12:17:37;5.60;;;3.00;;
10617;SDS011;5356;43.526;26.534;2023-04-29T12:20:03;7.15;;;3.08;;
10617;SDS011;5356;43.526;26.534;2023-04-29T12:22:33;4.95;;;2.55;;
10617;SDS011;5356;43.526;26.534;2023-04-29T12:25:01;4.95;;;3.28;;
10617;SDS011;5356;43.526;26.534;2023-04-29T12:27:28;8.15;;;3.17;;
10617;SDS011;5356;43.526;26.534;2023-04-29T12:29:55;8.88;;;5.40;;
10617;SDS011;5356;43.526;26.534;2023-04-29T12:32:21;5.75;;;3.60;;
10617;SDS011;5356;43.526;26.534;2023-04-29T12:34:49;4.55;;;2.08;;
10617;SDS011;5356;43.526;26.534;2023-04-29T12:37:15;11.70;;;5.38;;
10617;SDS011;5356;43.526;26.534;2023-04-29T12:39:41;9.10;;;3.50;;
10617;SDS011;5356;43.526;26.534;2023-04-29T12:42:06;4.35;;;2.95;;
10617;SDS011;5356;43.526;26.534;2023-04-29T12:47:09;4.72;;;2.67;;
10617;SDS011;5356;43.526;26.534;2023-04-29T12:49:45;7.45;;;2.92;;
10617;SDS011;5356;43.526;26.534;2023-04-29T12:52:12;10.98;;;4.40;;
10617;SDS011;5356;43.526;26.534;2023-04-29T12:54:38;5.72;;;3.75;;
10617;SDS011;5356;43.526;26.534;2023-04-29T12:57:10;5.07;;;3.88;;
10617;SDS011;5356;43.526;26.534;2023-04-29T12:59:36;4.32;;;2.58;;
10617;SDS011;5356;43.526;26.534;2023-04-29T13:02:02;8.52;;;3.85;;
10617;SDS011;5356;43.526;26.534;2023-04-29T13:04:28;3.47;;;2.00;;
10617;SDS011;5356;43.526;26.534;2023-04-29T13:06:53;5.80;;;2.78;;
10617;SDS011;5356;43.526;26.534;2023-04-29T13:09:24;14.77;;;4.30;;
10617;SDS011;5356;43.526;26.534;2023-04-29T13:11:52;4.35;;;2.92;;
10617;SDS011;5356;43.526;26.534;2023-04-29T13:14:18;2.67;;;2.30;;
10617;SDS011;5356;43.526;26.534;2023-04-29T13:16:43;11.40;;;3.50;;
10617;SDS011;5356;43.526;26.534;2023-04-29T13:19:10;38.15;;;12.90;;
10617;SDS011;5356;43.526;26.534;2023-04-29T13:21:35;5.13;;;3.30;;
10617;SDS011;5356;43.526;26.534;2023-04-29T13:24:01;6.63;;;3.25;;
10617;SDS011;5356;43.526;26.534;2023-04-29T13:26:26;5.38;;;3.63;;
10617;SDS011;5356;43.526;26.534;2023-04-29T13:28:52;5.43;;;2.83;;
10617;SDS011;5356;43.526;26.534;2023-04-29T13:31:17;3.45;;;2.33;;
10617;SDS011;5356;43.526;26.534;2023-04-29T13:33:43;3.40;;;2.30;;
10617;SDS011;5356;43.526;26.534;2023-04-29T13:36:08;5.25;;;2.10;;
10617;SDS011;5356;43.526;26.534;2023-04-29T13:38:34;6.78;;;3.63;;
10617;SDS011;5356;43.526;26.534;2023-04-29T13:41:00;2.83;;;2.38;;
10617;SDS011;5356;43.526;26.534;2023-04-29T13:43:25;6.18;;;2.60;;
10617;SDS011;5356;43.526;26.534;2023-04-29T13:45:51;4.85;;;2.45;;
10617;SDS011;5356;43.526;26.534;2023-04-29T13:48:16;4.10;;;2.55;;
10617;SDS011;5356;43.526;26.534;2023-04-29T13:50:43;3.45;;;2.72;;
10617;SDS011;5356;43.526;26.534;2023-04-29T13:53:09;3.17;;;2.05;;
10617;SDS011;5356;43.526;26.534;2023-04-29T13:55:36;3.97;;;2.40;;
10617;SDS011;5356;43.526;26.534;2023-04-29T13:58:01;17.38;;;4.95;;
10617;SDS011;5356;43.526;26.534;2023-04-29T14:00:27;4.38;;;2.72;;
10617;SDS011;5356;43.526;26.534;2023-04-29T14:02:53;6.18;;;3.00;;
10617;SDS011;5356;43.526;26.534;2023-04-29T14:05:19;13.35;;;5.05;;
10617;SDS011;5356;43.526;26.534;2023-04-29T14:07:44;7.82;;;2.60;;
10617;SDS011;5356;43.526;26.534;2023-04-29T14:10:10;2.85;;;2.50;;
10617;SDS011;5356;43.526;26.534;2023-04-29T14:12:35;2.80;;;2.30;;
10617;SDS011;5356;43.526;26.534;2023-04-29T14:15:01;5.35;;;2.42;;
10617;SDS011;5356;43.526;26.534;2023-04-29T14:17:26;2.78;;;2.35;;
10617;SDS011;5356;43.526;26.534;2023-04-29T14:19:52;5.75;;;2.40;;
10617;SDS011;5356;43.526;26.534;2023-04-29T14:22:17;4.10;;;2.47;;
10617;SDS011;5356;43.526;26.534;2023-04-29T14:24:43;2.28;;;1.90;;
10617;SDS011;5356;43.526;26.534;2023-04-29T14:27:08;8.07;;;2.90;;
10617;SDS011;5356;43.526;26.534;2023-04-29T14:29:33;6.38;;;2.67;;
10617;SDS011;5356;43.526;26.534;2023-04-29T14:31:59;5.50;;;2.70;;
10617;SDS011;5356;43.526;26.534;2023-04-29T14:34:24;7.20;;;3.03;;
10617;SDS011;5356;43.526;26.534;2023-04-29T14:36:50;4.70;;;2.70;;
10617;SDS011;5356;43.526;26.534;2023-04-29T14:39:16;4.20;;;3.72;;
10617;SDS011;5356;43.526;26.534;2023-04-29T14:41:41;5.25;;;3.40;;
10617;SDS011;5356;43.526;26.534;2023-04-29T14:44:07;5.55;;;2.30;;
10617;SDS011;5356;43.526;26.534;2023-04-29T14:46:32;6.93;;;2.30;;
10617;SDS011;5356;43.526;26.534;2023-04-29T14:48:58;4.20;;;2.47;;
10617;SDS011;5356;43.526;26.534;2023-04-29T14:51:23;6.00;;;2.33;;
10617;SDS011;5356;43.526;26.534;2023-04-29T14:53:49;3.30;;;2.22;;
10617;SDS011;5356;43.526;26.534;2023-04-29T14:56:16;4.57;;;3.20;;
10617;SDS011;5356;43.526;26.534;2023-04-29T14:58:42;4.65;;;2.92;;
10617;SDS011;5356;43.526;26.534;2023-04-29T15:01:07;3.95;;;2.38;;
10617;SDS011;5356;43.526;26.534;2023-04-29T15:03:33;4.20;;;2.55;;
10617;SDS011;5356;43.526;26.534;2023-04-29T15:06:02;3.78;;;2.70;;
10617;SDS011;5356;43.526;26.534;2023-04-29T15:08:28;2.35;;;2.13;;
10617;SDS011;5356;43.526;26.534;2023-04-29T15:10:54;6.05;;;2.75;;
10617;SDS011;5356;43.526;26.534;2023-04-29T15:13:20;5.03;;;2.80;;
10617;SDS011;5356;43.526;26.534;2023-04-29T15:15:47;4.28;;;2.03;;
10617;SDS011;5356;43.526;26.534;2023-04-29T15:18:13;6.13;;;3.33;;
10617;SDS011;5356;43.526;26.534;2023-04-29T15:20:39;5.38;;;2.83;;
10617;SDS011;5356;43.526;26.534;2023-04-29T15:23:04;4.55;;;2.67;;
10617;SDS011;5356;43.526;26.534;2023-04-29T15:25:30;3.92;;;2.25;;